sensor_id;sensor_type;location;lat;lon;timestamp;temperature;humidity
41924;DHT22;27613;48.116;11.656;2023-05-29T00:01:12;12.60;99.90
41924;DHT22;27613;48.116;11.656;2023-05-29T00:03:38;12.70;99.90
41924;DHT22;27613;48.116;11.656;2023-05-29T00:06:04;12.60;99.90
41924;DHT22;27613;48.116;11.656;2023-05-29T00:08:31;12.60;99.90
41924;DHT22;27613;48.116;11.656;2023-05-29T00:10:57;12.40;99.90
41924;DHT22;27613;48.116;11.656;2023-05-29T00:13:23;12.40;99.90
41924;DHT22;27613;48.116;11.656;2023-05-29T00:15:48;12.30;99.90
41924;DHT22;27613;48.116;11.656;2023-05-29T00:18:14;12.40;99.90
41924;DHT22;27613;48.116;11.656;2023-05-29T00:20:39;12.30;99.90
41924;DHT22;27613;48.116;11.656;2023-05-29T00:23:05;12.30;99.90
41924;DHT22;27613;48.116;11.656;2023-05-29T00:25:32;12.20;99.90
41924;DHT22;27613;48.116;11.656;2023-05-29T00:27:57;12.30;99.90
41924;DHT22;27613;48.116;11.656;2023-05-29T00:30:23;12.10;99.90
41924;DHT22;27613;48.116;11.656;2023-05-29T00:32:48;12.20;99.90
41924;DHT22;27613;48.116;11.656;2023-05-29T00:35:14;12.00;99.90
41924;DHT22;27613;48.116;11.656;2023-05-29T00:37:40;12.00;99.90
41924;DHT22;27613;48.116;11.656;2023-05-29T00:40:06;12.00;99.90
41924;DHT22;27613;48.116;11.656;2023-05-29T00:42:32;12.00;99.90
41924;DHT22;27613;48.116;11.656;2023-05-29T00:44:58;11.90;99.90
41924;DHT22;27613;48.116;11.656;2023-05-29T00:47:23;11.90;99.90
41924;DHT22;27613;48.116;11.656;2023-05-29T00:49:50;11.80;99.90
41924;DHT22;27613;48.116;11.656;2023-05-29T00:52:17;11.80;99.90
41924;DHT22;27613;48.116;11.656;2023-05-29T00:54:45;11.80;99.90
41924;DHT22;27613;48.116;11.656;2023-05-29T00:57:12;11.70;99.90
41924;DHT22;27613;48.116;11.656;2023-05-29T00:59:39;11.70;99.90
41924;DHT22;27613;48.116;11.656;2023-05-29T01:02:06;11.70;99.90
41924;DHT22;27613;48.116;11.656;2023-05-29T01:04:32;11.60;99.90
41924;DHT22;27613;48.116;11.656;2023-05-29T01:07:01;11.60;99.90
41924;DHT22;27613;48.116;11.656;2023-05-29T01:09:28;11.50;99.90
41924;DHT22;27613;48.116;11.656;2023-05-29T01:12:08;11.50;99.90
41924;DHT22;27613;48.116;11.656;2023-05-29T01:20:40;11.40;99.90
41924;DHT22;27613;48.116;11.656;2023-05-29T01:28:30;11.30;99.90
41924;DHT22;27613;48.116;11.656;2023-05-29T01:30:58;11.20;99.90
41924;DHT22;27613;48.116;11.656;2023-05-29T01:33:26;11.20;99.90
41924;DHT22;27613;48.116;11.656;2023-05-29T01:35:52;11.00;99.90
41924;DHT22;27613;48.116;11.656;2023-05-29T01:38:18;11.00;99.90
41924;DHT22;27613;48.116;11.656;2023-05-29T01:40:44;10.90;99.90
41924;DHT22;27613;48.116;11.656;2023-05-29T01:43:10;10.90;99.90
41924;DHT22;27613;48.116;11.656;2023-05-29T01:45:36;10.90;99.90
41924;DHT22;27613;48.116;11.656;2023-05-29T01:48:02;10.90;99.90
41924;DHT22;27613;48.116;11.656;2023-05-29T01:50:28;10.80;99.90
41924;DHT22;27613;48.116;11.656;2023-05-29T01:52:54;10.80;99.90
41924;DHT22;27613;48.116;11.656;2023-05-29T01:55:20;10.80;99.90
41924;DHT22;27613;48.116;11.656;2023-05-29T01:57:46;10.80;99.90
41924;DHT22;27613;48.116;11.656;2023-05-29T02:00:12;10.80;99.90
41924;DHT22;27613;48.116;11.656;2023-05-29T02:02:38;10.60;99.90
41924;DHT22;27613;48.116;11.656;2023-05-29T02:05:05;10.60;99.90
41924;DHT22;27613;48.116;11.656;2023-05-29T02:07:31;10.50;99.90
41924;DHT22;27613;48.116;11.656;2023-05-29T02:09:57;10.50;99.90
41924;DHT22;27613;48.116;11.656;2023-05-29T02:12:22;10.50;99.90
41924;DHT22;27613;48.116;11.656;2023-05-29T02:14:48;10.40;99.90
41924;DHT22;27613;48.116;11.656;2023-05-29T02:17:14;10.40;99.90
41924;DHT22;27613;48.116;11.656;2023-05-29T02:19:40;10.40;99.90
41924;DHT22;27613;48.116;11.656;2023-05-29T02:22:06;10.40;99.90
41924;DHT22;27613;48.116;11.656;2023-05-29T02:24:32;10.40;99.90
41924;DHT22;27613;48.116;11.656;2023-05-29T02:26:57;10.30;99.90
41924;DHT22;27613;48.116;11.656;2023-05-29T02:29:23;10.20;99.90
41924;DHT22;27613;48.116;11.656;2023-05-29T02:31:48;10.20;99.90
41924;DHT22;27613;48.116;11.656;2023-05-29T02:34:14;10.20;99.90
41924;DHT22;27613;48.116;11.656;2023-05-29T02:36:40;10.20;99.90
41924;DHT22;27613;48.116;11.656;2023-05-29T02:39:05;10.10;99.90
41924;DHT22;27613;48.116;11.656;2023-05-29T02:41:31;10.00;99.90
41924;DHT22;27613;48.116;11.656;2023-05-29T02:43:57;9.90;99.90
41924;DHT22;27613;48.116;11.656;2023-05-29T02:46:22;9.90;99.90
41924;DHT22;27613;48.116;11.656;2023-05-29T02:48:48;9.90;99.90
41924;DHT22;27613;48.116;11.656;2023-05-29T02:51:13;9.90;99.90
41924;DHT22;27613;48.116;11.656;2023-05-29T02:53:39;9.90;99.90
41924;DHT22;27613;48.116;11.656;2023-05-29T02:56:06;9.90;99.90
41924;DHT22;27613;48.116;11.656;2023-05-29T02:58:32;9.80;99.90
41924;DHT22;27613;48.116;11.656;2023-05-29T03:00:58;9.80;99.90
41924;DHT22;27613;48.116;11.656;2023-05-29T03:03:25;9.70;99.90
41924;DHT22;27613;48.116;11.656;2023-05-29T03:05:50;9.70;99.90
41924;DHT22;27613;48.116;11.656;2023-05-29T03:08:16;9.70;99.90
41924;DHT22;27613;48.116;11.656;2023-05-29T03:10:43;9.60;99.90
41924;DHT22;27613;48.116;11.656;2023-05-29T03:13:09;9.60;99.90
41924;DHT22;27613;48.116;11.656;2023-05-29T03:15:35;9.60;99.90
41924;DHT22;27613;48.116;11.656;2023-05-29T03:18:00;9.50;99.90
41924;DHT22;27613;48.116;11.656;2023-05-29T03:20:26;9.50;99.90
41924;DHT22;27613;48.116;11.656;2023-05-29T03:22:53;9.50;99.90
41924;DHT22;27613;48.116;11.656;2023-05-29T03:25:20;9.50;99.90
41924;DHT22;27613;48.116;11.656;2023-05-29T03:27:45;9.50;99.90
41924;DHT22;27613;48.116;11.656;2023-05-29T03:30:11;9.40;99.90
41924;DHT22;27613;48.116;11.656;2023-05-29T03:32:37;9.40;99.90
41924;DHT22;27613;48.116;11.656;2023-05-29T03:35:03;9.30;99.90
41924;DHT22;27613;48.116;11.656;2023-05-29T03:37:29;9.30;99.90
41924;DHT22;27613;48.116;11.656;2023-05-29T03:39:54;9.30;99.90
41924;DHT22;27613;48.116;11.656;2023-05-29T03:42:20;9.30;99.90
41924;DHT22;27613;48.116;11.656;2023-05-29T03:44:46;9.40;99.90
41924;DHT22;27613;48.116;11.656;2023-05-29T03:47:11;9.30;99.90
41924;DHT22;27613;48.116;11.656;2023-05-29T03:49:37;9.40;99.90
41924;DHT22;27613;48.116;11.656;2023-05-29T03:52:03;9.40;99.90
41924;DHT22;27613;48.116;11.656;2023-05-29T03:54:29;9.40;99.90
41924;DHT22;27613;48.116;11.656;2023-05-29T03:56:55;9.40;99.90
41924;DHT22;27613;48.116;11.656;2023-05-29T03:59:20;9.40;99.90
41924;DHT22;27613;48.116;11.656;2023-05-29T04:01:46;9.40;99.90
41924;DHT22;27613;48.116;11.656;2023-05-29T04:04:11;9.50;99.90
41924;DHT22;27613;48.116;11.656;2023-05-29T04:06:37;9.50;99.90
41924;DHT22;27613;48.116;11.656;2023-05-29T04:09:05;9.50;99.90
41924;DHT22;27613;48.116;11.656;2023-05-29T04:11:34;9.50;99.90
41924;DHT22;27613;48.116;11.656;2023-05-29T04:14:00;9.60;99.90
41924;DHT22;27613;48.116;11.656;2023-05-29T04:16:27;9.50;99.90
41924;DHT22;27613;48.116;11.656;2023-05-29T04:18:54;9.50;99.90
41924;DHT22;27613;48.116;11.656;2023-05-29T04:21:20;9.50;99.90
41924;DHT22;27613;48.116;11.656;2023-05-29T04:23:45;9.50;99.90
41924;DHT22;27613;48.116;11.656;2023-05-29T04:26:11;9.60;99.90
41924;DHT22;27613;48.116;11.656;2023-05-29T04:28:38;9.60;99.90
41924;DHT22;27613;48.116;11.656;2023-05-29T04:31:04;9.70;99.90
41924;DHT22;27613;48.116;11.656;2023-05-29T04:33:31;9.80;99.90
41924;DHT22;27613;48.116;11.656;2023-05-29T04:35:57;9.90;99.90
41924;DHT22;27613;48.116;11.656;2023-05-29T04:38:23;9.90;99.90
41924;DHT22;27613;48.116;11.656;2023-05-29T04:40:52;10.00;99.90
41924;DHT22;27613;48.116;11.656;2023-05-29T04:43:18;10.00;99.90
41924;DHT22;27613;48.116;11.656;2023-05-29T04:45:43;10.10;99.90
41924;DHT22;27613;48.116;11.656;2023-05-29T04:48:09;10.10;99.90
41924;DHT22;27613;48.116;11.656;2023-05-29T04:50:35;10.20;99.90
41924;DHT22;27613;48.116;11.656;2023-05-29T04:53:02;10.20;99.90
41924;DHT22;27613;48.116;11.656;2023-05-29T04:55:27;10.30;99.90
41924;DHT22;27613;48.116;11.656;2023-05-29T04:57:53;10.40;99.90
41924;DHT22;27613;48.116;11.656;2023-05-29T05:00:19;10.40;99.90
41924;DHT22;27613;48.116;11.656;2023-05-29T05:02:45;10.50;99.90
41924;DHT22;27613;48.116;11.656;2023-05-29T05:05:11;10.60;99.90
41924;DHT22;27613;48.116;11.656;2023-05-29T05:07:37;10.60;99.90
41924;DHT22;27613;48.116;11.656;2023-05-29T05:10:04;10.70;99.90
41924;DHT22;27613;48.116;11.656;2023-05-29T05:12:29;10.80;99.90
41924;DHT22;27613;48.116;11.656;2023-05-29T05:14:55;10.80;99.90
41924;DHT22;27613;48.116;11.656;2023-05-29T05:17:21;10.90;99.90
41924;DHT22;27613;48.116;11.656;2023-05-29T05:19:47;11.00;99.90
41924;DHT22;27613;48.116;11.656;2023-05-29T05:22:14;11.10;99.90
41924;DHT22;27613;48.116;11.656;2023-05-29T05:24:40;11.20;99.90
41924;DHT22;27613;48.116;11.656;2023-05-29T05:27:05;11.30;99.90
41924;DHT22;27613;48.116;11.656;2023-05-29T05:29:31;11.40;99.90
41924;DHT22;27613;48.116;11.656;2023-05-29T05:31:57;11.50;99.90
41924;DHT22;27613;48.116;11.656;2023-05-29T05:34:22;11.50;99.90
41924;DHT22;27613;48.116;11.656;2023-05-29T05:36:48;11.60;99.90
41924;DHT22;27613;48.116;11.656;2023-05-29T05:39:14;11.70;99.90
41924;DHT22;27613;48.116;11.656;2023-05-29T05:41:40;11.80;99.90
41924;DHT22;27613;48.116;11.656;2023-05-29T05:44:06;11.80;99.90
41924;DHT22;27613;48.116;11.656;2023-05-29T05:46:31;11.90;99.90
41924;DHT22;27613;48.116;11.656;2023-05-29T05:48:57;11.90;99.90
41924;DHT22;27613;48.116;11.656;2023-05-29T05:51:23;12.00;99.90
41924;DHT22;27613;48.116;11.656;2023-05-29T05:53:49;12.10;99.90
41924;DHT22;27613;48.116;11.656;2023-05-29T05:56:14;12.20;99.90
41924;DHT22;27613;48.116;11.656;2023-05-29T05:58:40;12.20;99.90
41924;DHT22;27613;48.116;11.656;2023-05-29T06:01:07;12.30;99.90
41924;DHT22;27613;48.116;11.656;2023-05-29T06:03:33;12.60;99.90
41924;DHT22;27613;48.116;11.656;2023-05-29T06:05:59;12.60;99.90
41924;DHT22;27613;48.116;11.656;2023-05-29T06:08:25;12.70;99.90
41924;DHT22;27613;48.116;11.656;2023-05-29T06:10:51;12.90;99.90
41924;DHT22;27613;48.116;11.656;2023-05-29T06:13:16;13.00;99.90
41924;DHT22;27613;48.116;11.656;2023-05-29T06:15:42;13.30;99.90
41924;DHT22;27613;48.116;11.656;2023-05-29T06:18:08;13.50;99.90
41924;DHT22;27613;48.116;11.656;2023-05-29T06:20:34;13.60;99.90
41924;DHT22;27613;48.116;11.656;2023-05-29T06:22:59;13.50;99.90
41924;DHT22;27613;48.116;11.656;2023-05-29T06:25:25;13.50;99.90
41924;DHT22;27613;48.116;11.656;2023-05-29T06:28:01;13.60;99.90
41924;DHT22;27613;48.116;11.656;2023-05-29T06:30:27;14.00;99.90
41924;DHT22;27613;48.116;11.656;2023-05-29T06:32:53;14.00;99.90
41924;DHT22;27613;48.116;11.656;2023-05-29T06:35:19;14.20;99.90
41924;DHT22;27613;48.116;11.656;2023-05-29T06:37:45;14.20;99.90
41924;DHT22;27613;48.116;11.656;2023-05-29T06:40:12;14.30;99.90
41924;DHT22;27613;48.116;11.656;2023-05-29T06:42:38;14.40;99.90
41924;DHT22;27613;48.116;11.656;2023-05-29T06:45:03;14.40;99.90
41924;DHT22;27613;48.116;11.656;2023-05-29T06:47:29;14.40;99.90
41924;DHT22;27613;48.116;11.656;2023-05-29T06:49:55;14.60;99.50
41924;DHT22;27613;48.116;11.656;2023-05-29T06:52:21;14.80;99.70
41924;DHT22;27613;48.116;11.656;2023-05-29T06:54:46;15.00;97.40
41924;DHT22;27613;48.116;11.656;2023-05-29T06:57:12;14.90;97.40
41924;DHT22;27613;48.116;11.656;2023-05-29T06:59:38;15.00;97.70
41924;DHT22;27613;48.116;11.656;2023-05-29T07:02:04;15.00;96.90
41924;DHT22;27613;48.116;11.656;2023-05-29T07:04:29;15.10;97.20
41924;DHT22;27613;48.116;11.656;2023-05-29T07:06:55;15.30;98.40
41924;DHT22;27613;48.116;11.656;2023-05-29T07:09:20;15.50;99.40
41924;DHT22;27613;48.116;11.656;2023-05-29T07:11:46;15.70;96.50
41924;DHT22;27613;48.116;11.656;2023-05-29T07:14:11;15.80;96.20
41924;DHT22;27613;48.116;11.656;2023-05-29T07:16:37;15.90;96.10
41924;DHT22;27613;48.116;11.656;2023-05-29T07:19:03;16.10;95.70
41924;DHT22;27613;48.116;11.656;2023-05-29T07:21:28;16.10;95.10
41924;DHT22;27613;48.116;11.656;2023-05-29T07:23:54;16.10;95.90
41924;DHT22;27613;48.116;11.656;2023-05-29T07:26:19;16.20;95.10
41924;DHT22;27613;48.116;11.656;2023-05-29T07:28:47;16.30;94.40
41924;DHT22;27613;48.116;11.656;2023-05-29T07:31:12;16.30;94.60
41924;DHT22;27613;48.116;11.656;2023-05-29T07:33:40;16.40;94.30
41924;DHT22;27613;48.116;11.656;2023-05-29T07:36:06;16.50;93.90
41924;DHT22;27613;48.116;11.656;2023-05-29T07:38:32;16.70;92.90
41924;DHT22;27613;48.116;11.656;2023-05-29T07:40:58;16.70;91.90
41924;DHT22;27613;48.116;11.656;2023-05-29T07:43:23;17.00;93.10
41924;DHT22;27613;48.116;11.656;2023-05-29T07:45:49;17.00;93.40
41924;DHT22;27613;48.116;11.656;2023-05-29T07:48:14;17.00;92.60
41924;DHT22;27613;48.116;11.656;2023-05-29T07:50:40;17.20;91.00
41924;DHT22;27613;48.116;11.656;2023-05-29T07:53:06;17.30;90.50
41924;DHT22;27613;48.116;11.656;2023-05-29T07:55:32;17.40;90.60
41924;DHT22;27613;48.116;11.656;2023-05-29T07:57:57;17.50;91.10
41924;DHT22;27613;48.116;11.656;2023-05-29T08:00:23;17.70;90.90
41924;DHT22;27613;48.116;11.656;2023-05-29T08:02:48;17.70;91.00
41924;DHT22;27613;48.116;11.656;2023-05-29T08:05:14;17.90;91.30
41924;DHT22;27613;48.116;11.656;2023-05-29T08:07:40;18.20;91.50
41924;DHT22;27613;48.116;11.656;2023-05-29T08:10:07;18.20;89.90
41924;DHT22;27613;48.116;11.656;2023-05-29T08:12:33;18.30;88.50
41924;DHT22;27613;48.116;11.656;2023-05-29T08:15:00;18.40;87.20
41924;DHT22;27613;48.116;11.656;2023-05-29T08:17:26;18.40;86.20
41924;DHT22;27613;48.116;11.656;2023-05-29T08:19:52;18.50;88.70
41924;DHT22;27613;48.116;11.656;2023-05-29T08:22:18;18.80;86.40
41924;DHT22;27613;48.116;11.656;2023-05-29T08:24:43;19.00;85.90
41924;DHT22;27613;48.116;11.656;2023-05-29T08:27:09;19.00;84.10
41924;DHT22;27613;48.116;11.656;2023-05-29T08:29:35;19.10;84.00
41924;DHT22;27613;48.116;11.656;2023-05-29T08:32:02;19.20;84.30
41924;DHT22;27613;48.116;11.656;2023-05-29T08:34:27;19.40;83.30
41924;DHT22;27613;48.116;11.656;2023-05-29T08:36:53;19.50;84.20
41924;DHT22;27613;48.116;11.656;2023-05-29T08:39:20;19.70;80.70
41924;DHT22;27613;48.116;11.656;2023-05-29T08:41:57;19.80;80.60
41924;DHT22;27613;48.116;11.656;2023-05-29T08:44:26;20.10;80.60
41924;DHT22;27613;48.116;11.656;2023-05-29T08:46:55;20.20;81.00
41924;DHT22;27613;48.116;11.656;2023-05-29T08:49:22;20.30;78.60
41924;DHT22;27613;48.116;11.656;2023-05-29T08:51:50;20.60;79.10
41924;DHT22;27613;48.116;11.656;2023-05-29T08:54:17;20.90;78.20
41924;DHT22;27613;48.116;11.656;2023-05-29T08:56:43;21.00;75.30
41924;DHT22;27613;48.116;11.656;2023-05-29T08:59:09;21.20;75.20
41924;DHT22;27613;48.116;11.656;2023-05-29T09:01:37;21.10;73.40
41924;DHT22;27613;48.116;11.656;2023-05-29T09:04:04;21.50;76.50
41924;DHT22;27613;48.116;11.656;2023-05-29T09:06:30;21.80;74.10
41924;DHT22;27613;48.116;11.656;2023-05-29T09:08:56;22.00;74.30
41924;DHT22;27613;48.116;11.656;2023-05-29T09:11:23;22.10;71.80
41924;DHT22;27613;48.116;11.656;2023-05-29T09:13:49;22.60;71.60
41924;DHT22;27613;48.116;11.656;2023-05-29T09:16:16;22.80;72.40
41924;DHT22;27613;48.116;11.656;2023-05-29T09:18:42;23.00;70.20
41924;DHT22;27613;48.116;11.656;2023-05-29T09:21:17;23.40;68.10
41924;DHT22;27613;48.116;11.656;2023-05-29T09:23:52;24.00;66.30
41924;DHT22;27613;48.116;11.656;2023-05-29T09:26:17;24.50;66.60
41924;DHT22;27613;48.116;11.656;2023-05-29T09:28:45;25.10;62.70
41924;DHT22;27613;48.116;11.656;2023-05-29T09:31:15;25.50;62.10
41924;DHT22;27613;48.116;11.656;2023-05-29T09:33:49;26.40;61.30
41924;DHT22;27613;48.116;11.656;2023-05-29T09:36:22;27.30;58.10
41924;DHT22;27613;48.116;11.656;2023-05-29T09:38:48;27.80;56.30
41924;DHT22;27613;48.116;11.656;2023-05-29T09:41:20;27.10;57.30
41924;DHT22;27613;48.116;11.656;2023-05-29T09:43:48;27.30;57.90
41924;DHT22;27613;48.116;11.656;2023-05-29T09:46:15;27.70;56.60
41924;DHT22;27613;48.116;11.656;2023-05-29T09:48:42;27.90;51.80
41924;DHT22;27613;48.116;11.656;2023-05-29T09:51:21;28.50;50.50
41924;DHT22;27613;48.116;11.656;2023-05-29T09:53:48;29.00;50.00
41924;DHT22;27613;48.116;11.656;2023-05-29T09:56:16;29.50;50.20
41924;DHT22;27613;48.116;11.656;2023-05-29T09:58:43;29.20;50.60
41924;DHT22;27613;48.116;11.656;2023-05-29T10:01:12;29.90;49.60
41924;DHT22;27613;48.116;11.656;2023-05-29T10:03:38;30.10;48.00
41924;DHT22;27613;48.116;11.656;2023-05-29T10:06:06;30.50;46.40
41924;DHT22;27613;48.116;11.656;2023-05-29T10:08:35;30.70;45.40
41924;DHT22;27613;48.116;11.656;2023-05-29T10:11:03;30.30;45.80
41924;DHT22;27613;48.116;11.656;2023-05-29T10:13:38;30.90;45.50
41924;DHT22;27613;48.116;11.656;2023-05-29T10:16:07;31.10;46.00
41924;DHT22;27613;48.116;11.656;2023-05-29T10:18:43;32.10;44.50
41924;DHT22;27613;48.116;11.656;2023-05-29T10:21:11;32.00;42.80
41924;DHT22;27613;48.116;11.656;2023-05-29T10:23:38;31.90;43.30
41924;DHT22;27613;48.116;11.656;2023-05-29T10:26:12;31.50;44.70
41924;DHT22;27613;48.116;11.656;2023-05-29T10:28:44;32.10;43.90
41924;DHT22;27613;48.116;11.656;2023-05-29T10:31:18;32.60;42.40
41924;DHT22;27613;48.116;11.656;2023-05-29T10:36:30;32.50;43.40
41924;DHT22;27613;48.116;11.656;2023-05-29T10:38:57;31.90;43.10
41924;DHT22;27613;48.116;11.656;2023-05-29T10:43:57;32.30;42.10
41924;DHT22;27613;48.116;11.656;2023-05-29T10:49:18;32.30;44.10
41924;DHT22;27613;48.116;11.656;2023-05-29T10:51:44;33.20;42.00
41924;DHT22;27613;48.116;11.656;2023-05-29T10:54:10;32.90;42.20
41924;DHT22;27613;48.116;11.656;2023-05-29T10:56:36;31.70;42.90
41924;DHT22;27613;48.116;11.656;2023-05-29T10:59:02;33.40;42.40
41924;DHT22;27613;48.116;11.656;2023-05-29T11:01:31;34.20;41.30
41924;DHT22;27613;48.116;11.656;2023-05-29T11:06:41;33.90;40.50
41924;DHT22;27613;48.116;11.656;2023-05-29T11:12:23;33.60;41.60
41924;DHT22;27613;48.116;11.656;2023-05-29T11:15:11;35.00;39.80
41924;DHT22;27613;48.116;11.656;2023-05-29T11:20:13;33.50;40.90
41924;DHT22;27613;48.116;11.656;2023-05-29T11:23:00;34.80;40.20
41924;DHT22;27613;48.116;11.656;2023-05-29T11:25:27;35.20;38.20
41924;DHT22;27613;48.116;11.656;2023-05-29T11:27:53;35.50;38.20
41924;DHT22;27613;48.116;11.656;2023-05-29T11:30:21;35.50;38.50
41924;DHT22;27613;48.116;11.656;2023-05-29T11:32:48;35.20;38.70
41924;DHT22;27613;48.116;11.656;2023-05-29T11:35:14;36.00;38.30
41924;DHT22;27613;48.116;11.656;2023-05-29T11:37:41;36.30;38.50
41924;DHT22;27613;48.116;11.656;2023-05-29T11:40:11;36.00;38.50
41924;DHT22;27613;48.116;11.656;2023-05-29T11:42:44;36.00;38.00
41924;DHT22;27613;48.116;11.656;2023-05-29T11:45:17;35.60;39.10
41924;DHT22;27613;48.116;11.656;2023-05-29T11:47:55;35.60;38.80
41924;DHT22;27613;48.116;11.656;2023-05-29T11:50:29;35.00;38.50
41924;DHT22;27613;48.116;11.656;2023-05-29T11:52:56;35.40;37.80
41924;DHT22;27613;48.116;11.656;2023-05-29T11:55:23;34.20;38.00
41924;DHT22;27613;48.116;11.656;2023-05-29T11:57:56;35.20;38.10
41924;DHT22;27613;48.116;11.656;2023-05-29T12:00:23;35.30;37.30
41924;DHT22;27613;48.116;11.656;2023-05-29T12:02:50;34.30;39.30
41924;DHT22;27613;48.116;11.656;2023-05-29T12:05:17;34.30;37.90
41924;DHT22;27613;48.116;11.656;2023-05-29T12:07:53;34.70;38.30
41924;DHT22;27613;48.116;11.656;2023-05-29T12:10:20;34.10;38.20
41924;DHT22;27613;48.116;11.656;2023-05-29T12:15:19;35.80;37.40
41924;DHT22;27613;48.116;11.656;2023-05-29T12:17:45;36.00;36.80
41924;DHT22;27613;48.116;11.656;2023-05-29T12:20:12;35.90;37.50
41924;DHT22;27613;48.116;11.656;2023-05-29T12:22:40;36.10;36.90
41924;DHT22;27613;48.116;11.656;2023-05-29T12:27:33;35.90;36.90
41924;DHT22;27613;48.116;11.656;2023-05-29T12:30:03;35.80;36.30
41924;DHT22;27613;48.116;11.656;2023-05-29T12:32:36;34.60;37.90
41924;DHT22;27613;48.116;11.656;2023-05-29T12:35:16;35.00;38.40
41924;DHT22;27613;48.116;11.656;2023-05-29T12:40:19;35.20;38.80
41924;DHT22;27613;48.116;11.656;2023-05-29T12:42:53;35.80;37.80
41924;DHT22;27613;48.116;11.656;2023-05-29T12:45:19;36.50;36.70
41924;DHT22;27613;48.116;11.656;2023-05-29T12:48:05;37.40;36.10
41924;DHT22;27613;48.116;11.656;2023-05-29T12:53:00;37.10;34.10
41924;DHT22;27613;48.116;11.656;2023-05-29T12:55:27;37.00;34.70
41924;DHT22;27613;48.116;11.656;2023-05-29T12:57:54;36.30;33.30
41924;DHT22;27613;48.116;11.656;2023-05-29T13:00:19;36.90;34.20
41924;DHT22;27613;48.116;11.656;2023-05-29T13:02:46;35.60;37.00
41924;DHT22;27613;48.116;11.656;2023-05-29T13:05:12;36.50;36.80
41924;DHT22;27613;48.116;11.656;2023-05-29T13:07:38;36.50;36.10
41924;DHT22;27613;48.116;11.656;2023-05-29T13:10:03;35.90;35.10
41924;DHT22;27613;48.116;11.656;2023-05-29T13:12:29;35.60;38.20
41924;DHT22;27613;48.116;11.656;2023-05-29T13:14:55;35.80;36.60
41924;DHT22;27613;48.116;11.656;2023-05-29T13:17:21;36.40;35.80
41924;DHT22;27613;48.116;11.656;2023-05-29T13:19:47;36.60;35.20
41924;DHT22;27613;48.116;11.656;2023-05-29T13:22:12;37.00;34.90
41924;DHT22;27613;48.116;11.656;2023-05-29T13:24:38;37.00;35.00
41924;DHT22;27613;48.116;11.656;2023-05-29T13:27:04;37.00;35.20
41924;DHT22;27613;48.116;11.656;2023-05-29T13:29:30;35.50;36.00
41924;DHT22;27613;48.116;11.656;2023-05-29T13:31:56;35.10;36.80
41924;DHT22;27613;48.116;11.656;2023-05-29T13:34:22;35.60;37.20
41924;DHT22;27613;48.116;11.656;2023-05-29T13:36:50;36.10;35.90
41924;DHT22;27613;48.116;11.656;2023-05-29T13:39:16;36.30;37.00
41924;DHT22;27613;48.116;11.656;2023-05-29T13:41:41;37.10;36.70
41924;DHT22;27613;48.116;11.656;2023-05-29T13:44:07;37.00;36.30
41924;DHT22;27613;48.116;11.656;2023-05-29T13:46:37;35.20;37.20
41924;DHT22;27613;48.116;11.656;2023-05-29T13:49:02;35.30;37.30
41924;DHT22;27613;48.116;11.656;2023-05-29T13:51:28;35.70;37.80
41924;DHT22;27613;48.116;11.656;2023-05-29T13:53:53;35.60;37.40
41924;DHT22;27613;48.116;11.656;2023-05-29T13:56:19;35.70;37.60
41924;DHT22;27613;48.116;11.656;2023-05-29T13:58:44;35.40;36.50
41924;DHT22;27613;48.116;11.656;2023-05-29T14:01:10;34.90;36.40
41924;DHT22;27613;48.116;11.656;2023-05-29T14:03:35;35.50;37.60
41924;DHT22;27613;48.116;11.656;2023-05-29T14:06:01;36.00;37.00
41924;DHT22;27613;48.116;11.656;2023-05-29T14:08:30;36.00;38.00
41924;DHT22;27613;48.116;11.656;2023-05-29T14:10:55;37.20;36.80
41924;DHT22;27613;48.116;11.656;2023-05-29T14:13:21;37.20;35.90
41924;DHT22;27613;48.116;11.656;2023-05-29T14:15:47;37.00;36.30
41924;DHT22;27613;48.116;11.656;2023-05-29T14:18:14;36.50;36.40
41924;DHT22;27613;48.116;11.656;2023-05-29T14:20:39;36.10;36.50
41924;DHT22;27613;48.116;11.656;2023-05-29T14:23:05;35.40;37.00
41924;DHT22;27613;48.116;11.656;2023-05-29T14:25:31;36.00;37.10
41924;DHT22;27613;48.116;11.656;2023-05-29T14:27:56;36.10;37.20
41924;DHT22;27613;48.116;11.656;2023-05-29T14:30:22;36.10;37.50
41924;DHT22;27613;48.116;11.656;2023-05-29T14:32:47;35.20;38.40
41924;DHT22;27613;48.116;11.656;2023-05-29T14:35:13;36.30;36.30
41924;DHT22;27613;48.116;11.656;2023-05-29T14:37:39;36.50;35.90
41924;DHT22;27613;48.116;11.656;2023-05-29T14:40:05;36.70;35.30
41924;DHT22;27613;48.116;11.656;2023-05-29T14:42:31;36.30;36.30
41924;DHT22;27613;48.116;11.656;2023-05-29T14:44:58;36.70;35.60
41924;DHT22;27613;48.116;11.656;2023-05-29T14:47:23;36.80;35.80
41924;DHT22;27613;48.116;11.656;2023-05-29T14:49:49;37.40;35.20
41924;DHT22;27613;48.116;11.656;2023-05-29T14:52:14;36.80;35.50
41924;DHT22;27613;48.116;11.656;2023-05-29T14:54:40;36.60;35.20
41924;DHT22;27613;48.116;11.656;2023-05-29T14:57:06;37.20;36.20
41924;DHT22;27613;48.116;11.656;2023-05-29T14:59:31;36.00;36.30
41924;DHT22;27613;48.116;11.656;2023-05-29T15:01:57;34.80;37.20
41924;DHT22;27613;48.116;11.656;2023-05-29T15:04:25;35.30;37.30
41924;DHT22;27613;48.116;11.656;2023-05-29T15:06:50;35.00;37.00
41924;DHT22;27613;48.116;11.656;2023-05-29T15:09:16;34.90;37.40
41924;DHT22;27613;48.116;11.656;2023-05-29T15:11:42;35.60;37.10
41924;DHT22;27613;48.116;11.656;2023-05-29T15:14:08;35.40;37.40
41924;DHT22;27613;48.116;11.656;2023-05-29T15:16:34;33.40;39.10
41924;DHT22;27613;48.116;11.656;2023-05-29T15:19:00;33.60;39.60
41924;DHT22;27613;48.116;11.656;2023-05-29T15:21:25;34.40;38.20
41924;DHT22;27613;48.116;11.656;2023-05-29T15:23:51;35.00;38.60
41924;DHT22;27613;48.116;11.656;2023-05-29T15:26:16;36.00;36.70
41924;DHT22;27613;48.116;11.656;2023-05-29T15:28:42;35.00;36.80
41924;DHT22;27613;48.116;11.656;2023-05-29T15:31:08;33.60;38.70
41924;DHT22;27613;48.116;11.656;2023-05-29T15:33:33;34.20;37.90
41924;DHT22;27613;48.116;11.656;2023-05-29T15:35:59;33.30;39.00
41924;DHT22;27613;48.116;11.656;2023-05-29T15:38:24;33.80;37.20
41924;DHT22;27613;48.116;11.656;2023-05-29T15:40:50;34.40;37.40
41924;DHT22;27613;48.116;11.656;2023-05-29T15:43:16;35.70;35.80
41924;DHT22;27613;48.116;11.656;2023-05-29T15:45:41;35.50;35.80
41924;DHT22;27613;48.116;11.656;2023-05-29T15:48:09;35.50;36.20
41924;DHT22;27613;48.116;11.656;2023-05-29T15:50:34;34.90;36.60
41924;DHT22;27613;48.116;11.656;2023-05-29T15:53:00;33.70;37.50